Time;durP1;ratioP1;P1;durP2;ratioP2;P2;SDS_P1;SDS_P2;PMS_P1;PMS_P2;Temp;Humidity;BMP_temperature;BMP_pressure;BME280_temperature;BME280_humidity;BME280_pressure;Samples;Min_cycle;Max_cycle;Signal;HPM_P1;HPM_P2
2022/12/06 00:01:51;;;;;;;3.47;2.20;;;8.30;99.90;;;;;;4976448;28;20610;-87
2022/12/06 00:04:17;;;;;;;4.10;2.10;;;8.30;99.90;;;;;;4984914;28;20682;-87
2022/12/06 00:06:50;;;;;;;3.10;1.83;;;8.30;99.90;;;;;;4993723;28;20021;-87
2022/12/06 00:09:20;;;;;;;3.45;1.92;;;8.30;99.90;;;;;;4985431;28;20276;-87
2022/12/06 00:11:46;;;;;;;3.40;1.90;;;8.30;99.90;;;;;;5012390;28;20028;-88
2022/12/06 00:14:19;;;;;;;2.97;1.70;;;8.30;99.90;;;;;;4997945;28;20759;-87
2022/12/06 00:16:46;;;;;;;4.60;2.05;;;8.30;99.90;;;;;;4997372;28;20123;-87
2022/12/06 00:19:16;;;;;;;3.63;2.00;;;8.20;99.90;;;;;;4995719;28;20032;-87
2022/12/06 00:21:44;;;;;;;2.95;1.80;;;8.20;99.90;;;;;;5009899;28;20622;-87
2022/12/06 00:24:13;;;;;;;3.88;2.00;;;8.30;99.90;;;;;;5030031;28;20300;-87
2022/12/06 00:26:43;;;;;;;5.13;1.83;;;8.20;99.90;;;;;;4983837;28;20363;-88
2022/12/06 00:29:14;;;;;;;3.20;2.00;;;8.20;99.90;;;;;;4956986;28;20311;-87
2022/12/06 00:31:41;;;;;;;3.67;2.07;;;8.20;99.90;;;;;;5014273;28;20068;-87
2022/12/06 00:34:07;;;;;;;3.13;1.83;;;8.20;99.90;;;;;;4997449;28;20593;-87
2022/12/06 00:36:37;;;;;;;3.53;1.98;;;8.20;99.90;;;;;;5003650;28;20025;-87
2022/12/06 00:39:07;;;;;;;3.53;1.75;;;8.20;99.90;;;;;;5009594;28;20048;-87
2022/12/06 00:41:33;;;;;;;3.28;1.98;;;8.20;99.90;;;;;;4987150;28;20459;-87
2022/12/06 00:44:00;;;;;;;3.43;1.70;;;8.20;99.90;;;;;;4985548;28;20021;-87
2022/12/06 00:46:31;;;;;;;2.80;1.73;;;8.20;99.90;;;;;;5002007;28;20032;-87
2022/12/06 00:49:01;;;;;;;2.92;1.88;;;8.20;99.90;;;;;;4993396;28;20037;-87
2022/12/06 00:51:31;;;;;;;3.03;1.85;;;8.20;99.90;;;;;;4984893;28;21010;-87
2022/12/06 00:53:58;;;;;;;2.50;1.50;;;8.20;99.90;;;;;;4981865;28;20021;-87
2022/12/06 00:56:27;;;;;;;2.77;1.57;;;8.20;99.90;;;;;;4990063;28;20021;-87
2022/12/06 00:58:53;;;;;;;3.13;1.90;;;8.20;99.90;;;;;;4970982;28;21566;-87
2022/12/06 01:01:23;;;;;;;3.35;1.98;;;8.20;99.90;;;;;;5007449;28;20112;-87
2022/12/06 01:03:53;;;;;;;3.42;1.90;;;8.20;99.90;;;;;;4995143;28;20524;-87
2022/12/06 01:06:26;;;;;;;3.00;1.90;;;8.20;99.90;;;;;;5008196;28;20132;-87
2022/12/06 01:09:02;;;;;;;2.90;1.70;;;8.20;99.90;;;;;;4998882;28;20258;-87
2022/12/06 01:11:30;;;;;;;2.97;1.50;;;8.20;99.90;;;;;;5014689;28;21375;-87
2022/12/06 01:14:02;;;;;;;2.60;1.55;;;8.20;99.90;;;;;;5002138;28;20247;-88
2022/12/06 01:16:31;;;;;;;2.75;1.77;;;8.20;99.90;;;;;;4989481;28;20021;-87
2022/12/06 01:19:02;;;;;;;3.80;1.70;;;8.20;99.90;;;;;;4985359;28;20036;-87
2022/12/06 01:21:29;;;;;;;3.27;1.90;;;8.20;99.90;;;;;;5010281;28;20017;-87
2022/12/06 01:23:56;;;;;;;2.65;1.55;;;8.20;99.90;;;;;;4985158;28;21439;-87
2022/12/06 01:26:28;;;;;;;3.63;1.88;;;8.20;99.90;;;;;;4997578;28;20116;-87
2022/12/06 01:29:01;;;;;;;3.00;1.75;;;8.20;99.90;;;;;;5016032;28;20421;-87
2022/12/06 01:31:34;;;;;;;3.08;1.52;;;8.20;99.90;;;;;;4988612;28;20033;-87
2022/12/06 01:34:00;;;;;;;3.40;1.77;;;8.20;99.90;;;;;;5018461;28;20717;-87
2022/12/06 01:36:30;;;;;;;2.67;1.48;;;8.20;99.90;;;;;;4982312;28;20417;-87
2022/12/06 01:39:05;;;;;;;3.03;1.83;;;8.20;99.90;;;;;;5004511;28;20037;-87
2022/12/06 01:41:35;;;;;;;2.90;1.60;;;8.20;99.90;;;;;;5009460;28;20144;-87
2022/12/06 01:44:44;;;;;;;3.15;1.80;;;8.20;99.90;;;;;;5016509;28;20037;-87
2022/12/06 01:47:18;;;;;;;3.07;1.67;;;8.20;99.90;;;;;;4991854;28;20030;-87
2022/12/06 01:49:56;;;;;;;2.90;1.70;;;8.20;99.90;;;;;;4979050;28;20017;-87
2022/12/06 01:52:28;;;;;;;2.80;1.67;;;8.20;99.90;;;;;;4992739;28;20069;-87
2022/12/06 01:54:59;;;;;;;2.42;1.55;;;8.20;99.90;;;;;;5009920;28;20552;-87
2022/12/06 01:57:32;;;;;;;3.00;1.67;;;8.20;99.90;;;;;;5028140;28;20059;-87
2022/12/06 02:00:01;;;;;;;2.57;1.67;;;8.20;99.90;;;;;;5001358;28;20040;-88
2022/12/06 02:02:27;;;;;;;2.97;1.60;;;8.20;99.90;;;;;;4984800;28;20026;-87
2022/12/06 02:04:53;;;;;;;2.63;1.60;;;8.20;99.90;;;;;;4985537;28;20517;-87
2022/12/06 02:07:21;;;;;;;2.75;1.70;;;8.20;99.90;;;;;;4995066;28;20029;-87
2022/12/06 02:09:50;;;;;;;3.25;1.80;;;8.20;99.90;;;;;;4989385;28;20523;-88
2022/12/06 02:12:16;;;;;;;3.50;1.77;;;8.20;99.90;;;;;;5007481;28;20029;-87
2022/12/06 02:14:47;;;;;;;2.70;1.40;;;8.20;99.90;;;;;;4997350;28;20233;-87
2022/12/06 02:17:37;;;;;;;2.40;1.50;;;8.20;99.90;;;;;;4990344;28;20020;-88
2022/12/06 02:20:35;;;;;;;3.03;1.77;;;8.30;99.90;;;;;;5003504;28;20029;-87
2022/12/06 02:23:28;;;;;;;2.97;1.75;;;8.30;99.90;;;;;;4995715;28;20034;-88
2022/12/06 02:26:02;;;;;;;3.37;1.50;;;8.30;99.90;;;;;;4989758;28;20385;-87
2022/12/06 02:29:10;;;;;;;3.70;1.90;;;8.30;99.90;;;;;;4993083;28;20033;-87
2022/12/06 02:31:49;;;;;;;2.90;1.60;;;8.30;99.90;;;;;;4996966;28;20025;-87
2022/12/06 02:34:37;;;;;;;2.70;1.50;;;8.30;99.90;;;;;;4986738;28;20037;-87
2022/12/06 02:37:16;;;;;;;3.35;1.63;;;8.30;99.90;;;;;;5023432;28;20082;-87
2022/12/06 02:39:48;;;;;;;2.77;1.57;;;8.30;99.90;;;;;;5000629;28;20029;-88
2022/12/06 02:42:19;;;;;;;2.65;1.55;;;8.30;99.90;;;;;;5000767;28;20008;-87
2022/12/06 02:45:00;;;;;;;3.72;1.63;;;8.30;99.90;;;;;;5027557;28;20033;-87
2022/12/06 02:47:35;;;;;;;3.10;1.80;;;8.30;99.90;;;;;;4987827;28;21264;-88
2022/12/06 02:50:07;;;;;;;2.70;1.65;;;8.30;99.90;;;;;;5014229;28;20477;-87
2022/12/06 02:52:38;;;;;;;3.37;1.50;;;8.30;99.90;;;;;;4985732;28;20083;-87
2022/12/06 02:55:06;;;;;;;2.45;1.40;;;8.30;99.90;;;;;;5014650;28;20029;-87
2022/12/06 02:57:41;;;;;;;3.08;1.60;;;8.30;99.90;;;;;;4999777;28;20156;-87
2022/12/06 03:00:35;;;;;;;3.63;1.77;;;8.30;99.90;;;;;;4982881;28;20354;-87
2022/12/06 03:03:26;;;;;;;3.50;2.00;;;8.30;99.90;;;;;;4976973;28;20137;-88
2022/12/06 03:06:01;;;;;;;3.83;1.70;;;8.30;99.90;;;;;;4985064;28;21124;-87
2022/12/06 03:08:56;;;;;;;3.67;1.98;;;8.40;99.90;;;;;;5004429;28;20039;-87
2022/12/06 03:11:25;;;;;;;4.05;1.80;;;8.30;99.90;;;;;;5026103;28;20025;-87
2022/12/06 03:13:59;;;;;;;3.88;1.88;;;8.30;99.90;;;;;;4995238;28;20162;-87
2022/12/06 03:16:33;;;;;;;4.28;2.50;;;8.30;99.90;;;;;;5012847;28;20013;-87
2022/12/06 03:19:11;;;;;;;2.63;1.63;;;8.30;99.90;;;;;;4974615;28;20064;-87
2022/12/06 03:21:54;;;;;;;3.03;1.70;;;8.40;99.90;;;;;;4978683;28;20049;-87
2022/12/06 03:24:21;;;;;;;4.50;2.00;;;8.30;99.90;;;;;;5011483;28;20076;-88
2022/12/06 03:26:48;;;;;;;3.63;1.90;;;8.30;99.90;;;;;;4992055;28;20563;-87
2022/12/06 03:29:17;;;;;;;2.72;1.50;;;8.30;99.90;;;;;;5004909;28;20060;-87
2022/12/06 03:31:44;;;;;;;2.83;1.60;;;8.30;99.90;;;;;;5011402;28;20033;-87
2022/12/06 03:34:16;;;;;;;4.47;2.13;;;8.30;99.90;;;;;;4961236;28;21531;-87
2022/12/06 03:36:45;;;;;;;3.72;1.67;;;8.30;99.90;;;;;;5016429;28;20040;-88
2022/12/06 03:39:16;;;;;;;3.58;2.10;;;8.30;99.90;;;;;;4991002;28;20216;-88
2022/12/06 03:41:49;;;;;;;3.78;1.98;;;8.30;99.90;;;;;;5006664;28;20552;-88
2022/12/06 03:44:15;;;;;;;3.67;1.97;;;8.30;99.90;;;;;;5010751;28;20165;-88
2022/12/06 03:46:47;;;;;;;3.50;1.83;;;8.30;99.90;;;;;;4996668;28;20021;-88
2022/12/06 03:49:31;;;;;;;3.08;1.63;;;8.30;99.90;;;;;;5003136;28;20020;-88
2022/12/06 03:51:58;;;;;;;2.95;1.60;;;8.30;99.90;;;;;;4978683;28;20586;-87
2022/12/06 03:54:23;;;;;;;4.87;2.07;;;8.20;99.90;;;;;;4998741;28;20029;-88
2022/12/06 03:56:49;;;;;;;6.50;2.20;;;8.30;99.90;;;;;;4999359;28;20029;-87
2022/12/06 03:59:15;;;;;;;3.78;1.88;;;8.30;99.90;;;;;;4988455;28;20667;-88
2022/12/06 04:01:41;;;;;;;4.00;1.70;;;8.20;99.90;;;;;;5015247;28;20452;-88
2022/12/06 04:04:08;;;;;;;3.97;1.95;;;8.20;99.90;;;;;;4986712;28;20517;-87
2022/12/06 04:06:34;;;;;;;3.30;1.70;;;8.20;99.90;;;;;;4990601;28;20834;-87
2022/12/06 04:11:43;;;;;;;2.92;1.80;;;8.20;99.90;;;;;;5026870;28;20017;-87
2022/12/06 04:14:10;;;;;;;3.17;1.80;;;8.20;99.90;;;;;;4991539;28;20052;-88
2022/12/06 04:19:20;;;;;;;3.85;1.75;;;8.20;99.90;;;;;;5004353;28;20588;-88
2022/12/06 04:24:30;;;;;;;3.42;1.60;;;8.20;99.90;;;;;;5016144;28;20541;-87
2022/12/06 04:40:41;;;;;;;3.80;1.92;;;8.10;99.90;;;;;;5014266;28;20026;-88
2022/12/06 04:45:55;;;;;;;3.55;1.98;;;8.10;99.90;;;;;;5013151;28;20028;-88
2022/12/06 04:48:20;;;;;;;3.60;1.90;;;8.10;99.90;;;;;;5002759;28;20321;-87
2022/12/06 04:50:50;;;;;;;3.93;1.80;;;8.10;99.90;;;;;;4993874;28;20389;-88
2022/12/06 04:53:16;;;;;;;3.90;1.88;;;8.10;99.90;;;;;;5013371;28;20581;-88
2022/12/06 04:55:47;;;;;;;3.42;1.90;;;8.10;99.90;;;;;;4973121;28;20022;-87
2022/12/06 04:58:13;;;;;;;3.53;1.83;;;8.10;99.90;;;;;;4997849;28;20059;-88
2022/12/06 05:00:42;;;;;;;4.40;2.00;;;8.00;99.90;;;;;;4990988;28;20370;-87
2022/12/06 05:03:09;;;;;;;3.70;1.85;;;8.00;99.90;;;;;;4997418;28;20486;-88
2022/12/06 05:05:35;;;;;;;2.92;1.70;;;8.10;99.90;;;;;;5015790;28;20595;-88
2022/12/06 05:08:01;;;;;;;3.88;1.80;;;8.00;99.90;;;;;;4979264;28;20154;-88
2022/12/06 05:10:26;;;;;;;2.67;1.63;;;8.00;99.90;;;;;;4974508;28;20112;-88
2022/12/06 05:12:52;;;;;;;3.25;1.65;;;8.00;99.90;;;;;;4996704;28;20017;-88
2022/12/06 05:15:18;;;;;;;4.20;1.67;;;8.00;99.90;;;;;;4988341;28;20160;-87
2022/12/06 05:17:44;;;;;;;3.45;1.63;;;8.00;99.90;;;;;;4998973;28;20021;-88
2022/12/06 05:20:10;;;;;;;3.23;1.77;;;8.00;99.90;;;;;;4991861;28;20163;-88
2022/12/06 05:22:35;;;;;;;2.95;1.58;;;8.00;99.90;;;;;;4988320;28;20028;-88
2022/12/06 05:25:01;;;;;;;3.27;1.77;;;8.00;99.90;;;;;;4985832;28;22392;-87
2022/12/06 05:27:26;;;;;;;4.10;2.20;;;8.00;99.90;;;;;;5014870;28;20020;-88
2022/12/06 05:29:52;;;;;;;3.37;1.80;;;7.90;99.90;;;;;;4993369;28;20037;-88
2022/12/06 05:32:18;;;;;;;4.63;1.92;;;7.90;99.90;;;;;;4976876;28;20043;-88
2022/12/06 05:34:43;;;;;;;3.47;1.80;;;7.90;99.90;;;;;;5006896;28;20257;-88
2022/12/06 05:37:09;;;;;;;2.73;1.63;;;7.80;99.90;;;;;;4990645;28;20021;-88
2022/12/06 05:39:34;;;;;;;3.50;1.90;;;7.80;99.90;;;;;;4978828;28;20233;-88
2022/12/06 05:42:01;;;;;;;4.00;2.10;;;7.80;99.90;;;;;;4970748;28;20070;-88
2022/12/06 05:44:27;;;;;;;3.30;2.10;;;7.80;99.90;;;;;;5011432;28;20048;-88
2022/12/06 05:46:53;;;;;;;3.50;1.80;;;7.80;99.90;;;;;;4983204;28;20104;-87
2022/12/06 05:49:18;;;;;;;2.70;1.63;;;7.80;99.90;;;;;;4994690;28;20401;-88
2022/12/06 05:51:44;;;;;;;3.13;1.63;;;7.70;99.90;;;;;;4990532;28;20659;-88
2022/12/06 05:54:10;;;;;;;3.63;1.90;;;7.60;99.90;;;;;;4986082;28;20039;-88
2022/12/06 05:56:35;;;;;;;4.90;1.73;;;7.60;99.90;;;;;;4968944;28;20045;-87
2022/12/06 05:59:02;;;;;;;4.60;1.90;;;7.60;99.90;;;;;;4987302;28;20074;-88
2022/12/06 06:01:28;;;;;;;3.92;1.77;;;7.50;99.90;;;;;;5015651;28;20100;-88
2022/12/06 06:03:53;;;;;;;4.37;1.80;;;7.50;99.90;;;;;;4990704;28;20037;-88
2022/12/06 06:06:20;;;;;;;4.22;1.90;;;7.50;99.90;;;;;;4996397;28;20121;-87
2022/12/06 06:08:45;;;;;;;3.50;1.75;;;7.50;99.90;;;;;;4976025;28;20025;-88
2022/12/06 06:11:11;;;;;;;3.60;1.80;;;7.40;99.90;;;;;;4948492;28;20055;-87
2022/12/06 06:13:37;;;;;;;3.40;2.00;;;7.40;99.90;;;;;;4989566;28;20029;-87
2022/12/06 06:16:03;;;;;;;3.97;1.60;;;7.40;99.90;;;;;;4970282;28;20029;-88
2022/12/06 06:18:28;;;;;;;3.15;1.80;;;7.40;99.90;;;;;;4977792;28;20032;-87
2022/12/06 06:20:58;;;;;;;2.93;1.80;;;7.40;99.90;;;;;;5000601;28;20324;-88
2022/12/06 06:23:24;;;;;;;3.55;1.70;;;7.40;99.90;;;;;;4975579;28;20018;-87
2022/12/06 06:25:50;;;;;;;4.28;1.75;;;7.30;99.90;;;;;;4984767;28;20265;-87
2022/12/06 06:28:17;;;;;;;3.15;1.70;;;7.30;99.90;;;;;;4969330;28;20025;-87
2022/12/06 06:30:43;;;;;;;3.50;1.88;;;7.30;99.90;;;;;;4990931;28;20037;-87
2022/12/06 06:33:09;;;;;;;3.50;1.80;;;7.20;99.90;;;;;;4985618;28;20341;-88
2022/12/06 06:35:36;;;;;;;3.47;1.77;;;7.20;99.90;;;;;;5001040;28;21026;-87
2022/12/06 06:38:02;;;;;;;4.53;1.92;;;7.20;99.90;;;;;;4978461;28;20545;-88
2022/12/06 06:40:28;;;;;;;4.15;2.22;;;7.20;99.90;;;;;;4985269;28;20033;-88
2022/12/06 06:42:55;;;;;;;5.10;2.37;;;7.10;99.90;;;;;;4965290;28;21368;-88
2022/12/06 06:45:20;;;;;;;4.00;2.17;;;7.10;99.90;;;;;;4995426;28;20394;-88
2022/12/06 06:47:46;;;;;;;4.47;2.30;;;7.10;99.90;;;;;;5000206;28;20018;-88
2022/12/06 06:50:12;;;;;;;5.33;2.50;;;7.10;99.90;;;;;;4986193;28;20357;-88
2022/12/06 06:52:38;;;;;;;3.70;2.00;;;7.10;99.90;;;;;;4977295;28;21943;-88
2022/12/06 06:55:04;;;;;;;3.73;2.20;;;7.10;99.90;;;;;;4982130;28;20382;-87
2022/12/06 06:57:29;;;;;;;3.47;2.00;;;7.10;99.90;;;;;;4982344;28;20424;-87
2022/12/06 06:59:55;;;;;;;4.20;2.00;;;7.10;99.90;;;;;;4982925;28;20780;-87
2022/12/06 07:02:21;;;;;;;5.20;2.00;;;7.10;99.90;;;;;;4988691;28;20728;-87
2022/12/06 07:04:48;;;;;;;3.08;1.88;;;7.00;99.90;;;;;;4971042;28;20053;-87
2022/12/06 07:07:14;;;;;;;3.72;2.15;;;7.00;99.90;;;;;;4992294;28;20030;-87
2022/12/06 07:09:40;;;;;;;5.10;2.28;;;7.00;99.90;;;;;;4962962;28;20033;-87
2022/12/06 07:12:06;;;;;;;4.10;2.10;;;7.00;99.90;;;;;;4975457;28;20036;-89
2022/12/06 07:14:33;;;;;;;3.63;1.90;;;7.00;99.90;;;;;;4964617;28;20230;-89
2022/12/06 07:16:58;;;;;;;4.90;1.98;;;7.00;99.90;;;;;;4992570;28;20087;-89
2022/12/06 07:19:24;;;;;;;4.00;1.70;;;7.00;99.90;;;;;;4973156;28;20813;-89
2022/12/06 07:21:50;;;;;;;3.85;1.77;;;7.00;99.90;;;;;;4980812;28;20014;-89
2022/12/06 07:24:15;;;;;;;3.87;1.80;;;7.00;99.90;;;;;;4963387;28;20029;-89
2022/12/06 07:26:41;;;;;;;4.40;1.90;;;7.00;99.90;;;;;;5011831;28;20053;-89
2022/12/06 07:29:07;;;;;;;4.30;1.80;;;7.00;99.90;;;;;;4974287;28;20600;-89
2022/12/06 07:31:33;;;;;;;3.72;2.08;;;6.90;99.90;;;;;;4981636;28;20053;-89
2022/12/06 07:34:01;;;;;;;5.05;1.95;;;6.90;99.90;;;;;;4986805;28;20438;-89
2022/12/06 07:36:30;;;;;;;4.00;1.83;;;6.90;99.90;;;;;;4986552;28;20125;-89
2022/12/06 07:38:57;;;;;;;4.25;1.88;;;6.90;99.90;;;;;;4972645;28;20494;-89
2022/12/06 07:46:55;;;;;;;3.53;2.00;;;6.90;99.90;;;;;;4994948;28;20274;-89
2022/12/06 07:49:21;;;;;;;3.77;1.80;;;6.80;99.90;;;;;;4987969;28;20817;-89
2022/12/06 07:51:47;;;;;;;3.70;1.80;;;6.80;99.90;;;;;;4979575;28;20026;-89
2022/12/06 07:54:14;;;;;;;3.55;1.85;;;6.80;99.90;;;;;;5006290;28;20023;-89
2022/12/06 07:56:41;;;;;;;4.30;2.30;;;6.80;99.90;;;;;;4977683;28;20025;-89
2022/12/06 07:59:06;;;;;;;4.53;2.10;;;6.80;99.90;;;;;;4999220;28;20048;-89
2022/12/06 08:01:32;;;;;;;3.37;1.80;;;6.80;99.90;;;;;;4960965;28;20029;-90
2022/12/06 08:04:00;;;;;;;6.50;3.95;;;6.80;99.90;;;;;;4975838;28;20045;-89
2022/12/06 08:06:26;;;;;;;6.90;3.95;;;6.80;99.90;;;;;;5002316;28;20053;-89
2022/12/06 08:08:52;;;;;;;6.47;3.93;;;6.80;99.90;;;;;;4981070;28;20321;-89
2022/12/06 08:11:19;;;;;;;5.97;3.30;;;6.90;99.90;;;;;;4982929;28;20032;-90
2022/12/06 08:13:45;;;;;;;4.53;2.80;;;6.80;99.90;;;;;;4992662;28;20805;-89
2022/12/06 08:16:11;;;;;;;5.53;2.67;;;6.90;99.90;;;;;;4968300;28;20443;-89
2022/12/06 08:18:38;;;;;;;4.75;2.42;;;6.90;99.90;;;;;;4992546;28;20026;-89
2022/12/06 08:21:05;;;;;;;3.78;2.00;;;6.90;99.90;;;;;;4982994;28;20671;-89
2022/12/06 08:23:31;;;;;;;3.72;2.25;;;7.00;99.90;;;;;;4977860;28;20022;-89
2022/12/06 08:26:11;;;;;;;3.40;2.05;;;7.00;99.90;;;;;;4992435;28;20044;-89
2022/12/06 08:28:37;;;;;;;3.37;2.10;;;7.00;99.90;;;;;;4987678;28;20623;-89
2022/12/06 08:31:14;;;;;;;4.65;2.30;;;7.10;99.90;;;;;;4956542;28;20022;-89
2022/12/06 08:33:41;;;;;;;4.43;2.00;;;7.10;99.90;;;;;;4999612;28;20032;-89
2022/12/06 08:36:09;;;;;;;5.60;2.50;;;7.10;99.90;;;;;;4984090;28;20077;-89
2022/12/06 08:38:36;;;;;;;5.18;2.38;;;7.20;99.90;;;;;;4993110;28;20133;-89
2022/12/06 08:41:03;;;;;;;4.97;2.50;;;7.20;99.90;;;;;;4987537;28;21031;-89
2022/12/06 08:43:30;;;;;;;4.90;2.30;;;7.30;99.90;;;;;;4989237;28;20026;-89
2022/12/06 08:45:56;;;;;;;4.13;2.30;;;7.40;99.90;;;;;;4996941;28;20081;-89
2022/12/06 08:48:22;;;;;;;3.70;1.90;;;7.40;99.90;;;;;;4987411;28;20557;-89
2022/12/06 08:50:47;;;;;;;3.90;2.20;;;7.40;99.90;;;;;;5002920;28;20026;-89
2022/12/06 08:53:13;;;;;;;4.40;2.30;;;7.50;99.90;;;;;;4976592;28;21254;-89
2022/12/06 08:55:40;;;;;;;3.83;2.10;;;7.60;99.90;;;;;;4992473;28;20052;-87
2022/12/06 08:58:06;;;;;;;4.38;2.28;;;7.70;99.90;;;;;;4993240;28;20697;-87
2022/12/06 09:00:32;;;;;;;3.95;2.10;;;7.80;99.90;;;;;;4992970;28;20025;-87
2022/12/06 09:02:58;;;;;;;5.35;2.10;;;7.80;99.90;;;;;;4961056;28;21063;-87
2022/12/06 09:05:23;;;;;;;3.00;1.97;;;7.90;99.90;;;;;;4967584;28;21973;-87
2022/12/06 09:07:49;;;;;;;4.13;2.35;;;7.90;99.90;;;;;;4980184;28;20105;-87
2022/12/06 09:10:15;;;;;;;4.03;2.27;;;8.00;99.90;;;;;;4977548;28;20102;-87
2022/12/06 09:12:41;;;;;;;4.28;2.50;;;8.10;99.90;;;;;;4992491;28;20030;-87
2022/12/06 09:15:07;;;;;;;4.93;2.53;;;8.20;99.90;;;;;;4981935;28;20050;-87
2022/12/06 09:17:32;;;;;;;4.95;2.25;;;8.20;99.90;;;;;;4980873;28;20770;-87
2022/12/06 09:19:58;;;;;;;3.20;1.90;;;8.30;99.90;;;;;;4985575;28;20711;-87
2022/12/06 09:22:24;;;;;;;3.20;1.90;;;8.40;99.90;;;;;;4982511;28;20018;-87
2022/12/06 09:24:50;;;;;;;4.47;2.10;;;8.40;99.90;;;;;;4972623;28;20178;-87
2022/12/06 09:27:17;;;;;;;3.50;1.90;;;8.50;99.90;;;;;;4990473;28;20026;-87
2022/12/06 09:29:42;;;;;;;4.38;2.40;;;8.50;99.90;;;;;;4996991;28;20025;-87
2022/12/06 09:32:08;;;;;;;4.10;2.10;;;8.50;99.90;;;;;;5012716;28;20034;-87
2022/12/06 09:34:34;;;;;;;3.17;2.05;;;8.70;99.90;;;;;;4980180;28;20025;-87
2022/12/06 09:37:09;;;;;;;4.80;2.40;;;8.90;99.90;;;;;;4988597;28;20561;-87
2022/12/06 09:39:46;;;;;;;3.73;2.10;;;9.20;99.90;;;;;;4996248;28;20107;-87
2022/12/06 09:42:27;;;;;;;4.07;2.35;;;9.70;99.90;;;;;;4998552;28;20014;-87
2022/12/06 09:44:53;;;;;;;3.17;1.95;;;10.30;99.90;;;;;;4995663;28;20124;-87
2022/12/06 09:47:48;;;;;;;3.70;2.07;;;10.90;99.90;;;;;;4994810;28;20417;-88
2022/12/06 09:50:32;;;;;;;4.40;2.40;;;11.60;99.90;;;;;;4957659;28;20075;-87
2022/12/06 09:53:29;;;;;;;3.00;2.20;;;12.30;99.90;;;;;;4975882;28;20029;-88
2022/12/06 09:56:13;;;;;;;4.05;2.30;;;12.90;99.90;;;;;;4984649;28;20117;-88
2022/12/06 09:58:56;;;;;;;4.75;2.45;;;13.60;99.90;;;;;;4999403;28;20091;-88
2022/12/06 10:01:31;;;;;;;5.00;2.67;;;14.10;99.90;;;;;;5011043;28;20030;-88
2022/12/06 10:04:34;;;;;;;5.53;2.80;;;14.70;99.90;;;;;;4971298;28;20041;-88
2022/12/06 10:07:10;;;;;;;3.80;2.63;;;15.10;99.90;;;;;;5015076;28;20043;-88
2022/12/06 10:10:25;;;;;;;3.65;2.22;;;15.60;99.90;;;;;;4988680;28;20500;-88
2022/12/06 10:12:56;;;;;;;5.13;2.22;;;16.00;99.90;;;;;;4938709;28;20582;-88
2022/12/06 10:15:31;;;;;;;3.50;2.07;;;16.50;99.90;;;;;;4993766;28;20049;-88
2022/12/06 10:18:38;;;;;;;4.82;1.92;;;16.90;99.90;;;;;;4996563;28;20036;-88
2022/12/06 10:21:22;;;;;;;4.07;2.00;;;17.30;99.90;;;;;;4978325;28;20141;-88
2022/12/06 10:23:54;;;;;;;2.70;1.80;;;17.60;99.90;;;;;;5005542;28;20273;-88
2022/12/06 10:26:29;;;;;;;3.13;1.80;;;17.90;99.90;;;;;;4981755;28;20553;-88
2022/12/06 10:29:15;;;;;;;3.10;2.00;;;18.20;99.90;;;;;;4991084;28;20025;-87
2022/12/06 10:31:59;;;;;;;2.78;1.80;;;18.50;99.90;;;;;;4996838;28;20021;-87
2022/12/06 10:34:54;;;;;;;3.58;1.75;;;18.80;99.90;;;;;;4994208;28;20166;-88
2022/12/06 10:37:58;;;;;;;2.60;1.75;;;19.10;99.90;;;;;;4990299;28;20554;-87
2022/12/06 10:41:05;;;;;;;3.15;1.63;;;19.40;99.90;;;;;;4998944;28;20025;-87
2022/12/06 10:43:48;;;;;;;2.67;1.60;;;19.60;99.90;;;;;;4967324;28;20386;-87
2022/12/06 10:49:36;;;;;;;3.83;1.80;;;20.00;99.90;;;;;;4996363;28;20704;-87
2022/12/06 10:52:17;;;;;;;3.20;1.80;;;20.20;99.90;;;;;;4972029;28;20037;-87
2022/12/06 10:55:08;;;;;;;2.83;1.70;;;20.40;99.90;;;;;;4985225;28;20048;-87
2022/12/06 10:57:48;;;;;;;2.40;1.40;;;20.60;99.90;;;;;;4964301;28;20146;-87
2022/12/06 11:00:26;;;;;;;2.22;1.42;;;20.80;99.90;;;;;;4984395;28;20037;-87
2022/12/06 11:03:14;;;;;;;4.07;1.80;;;21.10;99.90;;;;;;4999217;28;20030;-86
2022/12/06 11:05:42;;;;;;;2.53;1.48;;;21.30;99.90;;;;;;5010641;28;20044;-86
2022/12/06 11:08:25;;;;;;;2.42;1.45;;;21.50;99.90;;;;;;4977341;28;20287;-86
2022/12/06 11:10:53;;;;;;;2.13;1.30;;;21.70;99.90;;;;;;4997939;28;20103;-86
2022/12/06 11:13:43;;;;;;;1.58;1.30;;;21.90;99.90;;;;;;4993459;28;20051;-86
2022/12/06 11:16:21;;;;;;;2.47;1.38;;;22.10;99.90;;;;;;4998614;28;20280;-86
2022/12/06 11:18:48;;;;;;;2.53;1.25;;;22.30;99.90;;;;;;4988643;28;20616;-86
2022/12/06 11:21:21;;;;;;;2.00;1.38;;;22.50;99.90;;;;;;5008978;28;20159;-86
2022/12/06 11:23:59;;;;;;;1.80;1.30;;;22.70;99.90;;;;;;4982489;28;20133;-86
2022/12/06 11:26:47;;;;;;;1.30;1.20;;;22.80;99.90;;;;;;5005058;28;20730;-85
2022/12/06 11:29:15;;;;;;;2.08;1.35;;;23.00;98.90;;;;;;5005593;28;20028;-86
2022/12/06 11:31:48;;;;;;;2.30;1.52;;;23.10;99.90;;;;;;5005400;28;20591;-85
2022/12/06 11:34:28;;;;;;;2.40;1.45;;;23.20;99.60;;;;;;4985176;28;20020;-86
2022/12/06 11:36:55;;;;;;;1.80;1.20;;;23.20;98.00;;;;;;5008787;28;20391;-85
2022/12/06 11:39:21;;;;;;;1.65;1.30;;;23.30;99.90;;;;;;4959399;28;20128;-85
2022/12/06 11:41:55;;;;;;;2.13;1.30;;;23.30;99.90;;;;;;5001256;28;20112;-85
2022/12/06 11:44:37;;;;;;;2.33;1.20;;;23.40;98.20;;;;;;5026986;28;20040;-86
2022/12/06 11:47:05;;;;;;;1.88;1.40;;;23.40;97.10;;;;;;5033340;28;20599;-85
2022/12/06 11:49:38;;;;;;;1.40;1.20;;;23.50;99.90;;;;;;4997295;28;20839;-85
2022/12/06 11:52:22;;;;;;;1.95;1.27;;;23.50;97.70;;;;;;4984068;28;20091;-84
2022/12/06 11:54:53;;;;;;;1.63;1.17;;;23.50;95.90;;;;;;4964849;28;20733;-85
2022/12/06 11:57:28;;;;;;;1.55;1.10;;;23.40;95.70;;;;;;4994408;28;20780;-84
2022/12/06 12:00:09;;;;;;;1.63;1.00;;;23.30;96.20;;;;;;5004450;28;20643;-84
2022/12/06 12:02:36;;;;;;;2.80;1.00;;;23.10;93.90;;;;;;5003859;28;20477;-84
2022/12/06 12:05:25;;;;;;;1.38;1.00;;;23.00;97.40;;;;;;5014245;28;20437;-84
2022/12/06 12:07:56;;;;;;;1.88;0.80;;;22.80;92.30;;;;;;4993955;28;20449;-84
2022/12/06 12:10:32;;;;;;;1.73;0.80;;;22.50;93.60;;;;;;4951555;28;20029;-84
2022/12/06 12:16:02;;;;;;;2.10;0.80;;;21.90;91.70;;;;;;5011676;28;20022;-83
2022/12/06 12:18:33;;;;;;;2.03;0.90;;;21.50;93.20;;;;;;4981800;28;20882;-83
2022/12/06 12:21:00;;;;;;;2.20;0.90;;;21.20;94.40;;;;;;5014505;28;20322;-84
2022/12/06 12:23:36;;;;;;;1.35;0.90;;;21.10;95.70;;;;;;5015366;28;20593;-84
2022/12/06 12:26:03;;;;;;;1.95;1.10;;;20.90;93.70;;;;;;4963012;28;20029;-84
2022/12/06 12:28:34;;;;;;;1.27;0.80;;;20.80;95.70;;;;;;5014200;28;20644;-84
2022/12/06 12:31:10;;;;;;;1.92;1.00;;;20.70;95.00;;;;;;5019835;28;20025;-84
2022/12/06 12:33:35;;;;;;;2.03;1.00;;;20.70;94.60;;;;;;5002688;28;20025;-83
2022/12/06 12:36:01;;;;;;;3.40;0.93;;;20.70;96.80;;;;;;5002864;28;20279;-84
2022/12/06 12:38:33;;;;;;;1.50;1.00;;;20.60;96.80;;;;;;5008541;28;20313;-83
2022/12/06 12:41:20;;;;;;;2.45;1.10;;;20.50;94.80;;;;;;5004492;28;20064;-83
2022/12/06 12:44:05;;;;;;;2.67;0.97;;;20.50;94.70;;;;;;4994512;28;20254;-84
2022/12/06 12:46:35;;;;;;;0.90;0.80;;;20.50;94.50;;;;;;4995001;28;20441;-83
2022/12/06 12:49:22;;;;;;;2.33;1.05;;;20.40;95.50;;;;;;5013328;28;20317;-83
2022/12/06 12:51:47;;;;;;;4.78;2.03;;;20.40;93.40;;;;;;4988561;28;20056;-83
2022/12/06 12:54:25;;;;;;;2.87;1.60;;;20.30;96.80;;;;;;5014614;28;20109;-83
2022/12/06 12:56:51;;;;;;;2.08;1.10;;;20.20;93.50;;;;;;4988605;28;20029;-83
2022/12/06 12:59:20;;;;;;;1.52;1.00;;;20.10;96.20;;;;;;5010437;28;20392;-83
2022/12/06 13:02:09;;;;;;;1.88;0.95;;;20.00;95.10;;;;;;5001269;28;20032;-83
2022/12/06 13:04:43;;;;;;;1.58;0.90;;;19.90;92.90;;;;;;5003601;28;20045;-83
2022/12/06 13:07:16;;;;;;;2.30;0.90;;;19.80;94.60;;;;;;5025429;28;20052;-83
2022/12/06 13:10:03;;;;;;;2.10;0.90;;;19.80;93.80;;;;;;4980145;28;20063;-83
2022/12/06 13:12:39;;;;;;;1.83;0.85;;;19.70;92.70;;;;;;4992785;28;20023;-83
2022/12/06 13:15:04;;;;;;;2.85;1.10;;;19.70;94.80;;;;;;5027313;28;20035;-83
2022/12/06 13:17:33;;;;;;;1.67;0.90;;;19.60;95.50;;;;;;4996965;28;20393;-83
2022/12/06 13:20:00;;;;;;;1.80;1.00;;;19.50;94.00;;;;;;5009772;28;20029;-83
2022/12/06 13:22:30;;;;;;;1.83;1.00;;;19.40;95.50;;;;;;5002616;28;20029;-83
2022/12/06 13:25:03;;;;;;;1.80;0.90;;;19.30;95.90;;;;;;4998029;28;20020;-83
2022/12/06 13:27:34;;;;;;;2.28;1.10;;;19.40;96.70;;;;;;4964549;28;20131;-82
2022/12/06 13:30:02;;;;;;;1.53;1.20;;;19.60;98.60;;;;;;4997179;28;20516;-82
2022/12/06 13:32:35;;;;;;;1.55;1.10;;;19.80;99.90;;;;;;5032410;28;20535;-83
2022/12/06 13:35:35;;;;;;;1.63;1.00;;;20.00;99.50;;;;;;5004514;28;20595;-83
2022/12/06 13:38:16;;;;;;;1.98;1.00;;;20.10;95.00;;;;;;4988233;28;20448;-83
2022/12/06 13:40:45;;;;;;;1.38;1.00;;;20.00;93.50;;;;;;5009216;28;20055;-83
2022/12/06 13:43:23;;;;;;;2.20;1.00;;;19.90;94.40;;;;;;4982482;28;22974;-83
2022/12/06 13:46:07;;;;;;;1.13;0.77;;;19.70;91.70;;;;;;4989755;28;20025;-83
2022/12/06 13:48:38;;;;;;;1.45;0.93;;;19.40;90.60;;;;;;5001937;28;20507;-83
2022/12/06 13:51:10;;;;;;;1.85;1.00;;;19.10;93.10;;;;;;4989977;28;20030;-83
2022/12/06 13:54:02;;;;;;;3.15;1.30;;;18.80;91.70;;;;;;5016865;28;20413;-83